Polo, South Dakota
Current Conditions -  °F | °C
As of 12:55 AM on Sunday 26 Oct 2014 (Local Time) from KHON Reporting Station
Clear Clear  
Wind Chill: 40°   Ceiling: Unl
Heat Index: 44°   Visibility: 10mi
Dew Point: 31°   Wind: 8mph
Humidity: 60%   Direction: 130°SE
Pressure: 29.97"   Gusts: NA
Location:  44.8386°N, 99.1119°W
Report Text: KHON 260555Z AUTO 13007KT 10SM CLR 07/M01 A2997 RMK AO2 SLP152 T00671006 10122 20061 402000044 58017
Loading
Personal Weather Stations






























Interactive Weather Map
Tropical Storm Tracking
New forecast layout! Learn more

10-Day Weather Forecast

Advertisements
Track Severe Weather on mobile